Time;durP1;ratioP1;P1;durP2;ratioP2;P2;SDS_P1;SDS_P2;PMS_P1;PMS_P2;Temp;Humidity;BMP_temperature;BMP_pressure;BME280_temperature;BME280_humidity;BME280_pressure;Samples;Min_cycle;Max_cycle;Signal;HPM_P1;HPM_P2
2023/05/08 00:01:07;;;;;;;;;5.67;3.00;;;;;;;;5036880;28;46975;-80
2023/05/08 00:03:32;;;;;;;;;3.25;3.25;;;;;;;;5019010;28;45329;-81
2023/05/08 00:05:57;;;;;;;;;4.75;3.75;;;;;;;;5036916;28;45219;-80
2023/05/08 00:08:23;;;;;;;;;5.00;5.00;;;;;;;;5036809;28;45369;-80
2023/05/08 00:10:48;;;;;;;;;5.75;3.00;;;;;;;;5036751;28;46880;-81
2023/05/08 00:13:13;;;;;;;;;3.67;3.67;;;;;;;;5036522;28;45439;-80
2023/05/08 00:15:38;;;;;;;;;2.67;2.67;;;;;;;;5036612;28;45288;-80
2023/05/08 00:18:04;;;;;;;;;4.00;4.00;;;;;;;;5036811;28;45475;-80
2023/05/08 00:20:29;;;;;;;;;6.25;3.50;;;;;;;;5035483;28;47037;-80
2023/05/08 00:22:56;;;;;;;;;7.00;3.00;;;;;;;;5036563;28;45327;-80
2023/05/08 00:25:21;;;;;;;;;9.50;2.50;;;;;;;;5036949;28;45341;-81
2023/05/08 00:27:46;;;;;;;;;3.67;3.00;;;;;;;;5036555;28;45298;-80
2023/05/08 00:30:12;;;;;;;;;4.00;2.33;;;;;;;;5036381;28;46479;-80
2023/05/08 00:32:37;;;;;;;;;3.00;3.00;;;;;;;;5036710;28;45325;-81
2023/05/08 00:35:02;;;;;;;;;4.67;4.33;;;;;;;;5036177;28;45401;-80
2023/05/08 00:37:27;;;;;;;;;4.50;3.75;;;;;;;;5036712;28;45268;-80
2023/05/08 00:39:53;;;;;;;;;5.67;3.00;;;;;;;;5036250;28;45553;-80
2023/05/08 00:42:18;;;;;;;;;4.00;4.00;;;;;;;;5018865;28;45330;-80
2023/05/08 00:44:44;;;;;;;;;2.67;2.33;;;;;;;;5036525;28;45596;-80
2023/05/08 00:47:09;;;;;;;;;11.00;6.25;;;;;;;;5036155;28;45512;-80
2023/05/08 00:49:35;;;;;;;;;2.75;2.50;;;;;;;;5035990;28;47031;-80
2023/05/08 00:52:01;;;;;;;;;7.33;3.67;;;;;;;;5036459;28;45298;-81
2023/05/08 00:54:26;;;;;;;;;5.00;3.25;;;;;;;;5036358;28;45399;-80
2023/05/08 00:56:52;;;;;;;;;4.00;2.75;;;;;;;;5036426;28;45458;-80
2023/05/08 00:59:19;;;;;;;;;4.00;3.75;;;;;;;;5035958;28;45452;-80
2023/05/08 01:01:46;;;;;;;;;2.00;2.00;;;;;;;;5036038;28;45388;-80
2023/05/08 01:04:11;;;;;;;;;6.00;4.25;;;;;;;;5035893;28;45401;-80
2023/05/08 01:06:36;;;;;;;;;6.00;3.67;;;;;;;;5036186;28;45483;-80
2023/05/08 01:09:02;;;;;;;;;7.33;4.00;;;;;;;;5036162;28;45468;-80
2023/05/08 01:11:30;;;;;;;;;7.75;2.25;;;;;;;;5035743;28;45457;-80
2023/05/08 01:13:55;;;;;;;;;7.75;5.00;;;;;;;;5035899;28;45298;-80
2023/05/08 01:16:40;;;;;;;;;7.00;4.25;;;;;;;;5035833;28;45525;-80
2023/05/08 01:19:05;;;;;;;;;7.50;4.00;;;;;;;;5035522;28;46200;-80
2023/05/08 01:21:33;;;;;;;;;3.00;3.00;;;;;;;;5035961;28;45456;-80
2023/05/08 01:24:18;;;;;;;;;6.75;3.50;;;;;;;;5035783;28;45413;-80
2023/05/08 01:26:54;;;;;;;;;4.50;3.75;;;;;;;;5035870;28;45459;-81
2023/05/08 01:29:35;;;;;;;;;9.25;4.25;;;;;;;;5035725;28;47060;-80
2023/05/08 01:32:19;;;;;;;;;4.25;4.00;;;;;;;;5036890;28;45681;-81
2023/05/08 01:34:56;;;;;;;;;4.00;3.00;;;;;;;;5039072;28;45428;-80
2023/05/08 01:37:34;;;;;;;;;4.00;4.00;;;;;;;;5039378;28;45475;-80
2023/05/08 01:40:11;;;;;;;;;6.50;3.50;;;;;;;;5039461;28;45412;-80
2023/05/08 01:43:12;;;;;;;;;8.75;4.75;;;;;;;;5039412;28;45400;-81
2023/05/08 01:45:38;;;;;;;;;4.25;3.75;;;;;;;;4938616;28;45265;-80
2023/05/08 01:48:06;;;;;;;;;9.25;7.00;;;;;;;;4938528;28;45439;-81
2023/05/08 01:50:34;;;;;;;;;1.25;1.25;;;;;;;;4938833;28;45491;-80
2023/05/08 01:53:06;;;;;;;;;8.00;7.00;;;;;;;;4938484;28;45684;-81
2023/05/08 01:55:34;;;;;;;;;3.00;3.00;;;;;;;;4938657;28;45390;-80
2023/05/08 01:58:00;;;;;;;;;8.00;4.00;;;;;;;;4938382;28;45555;-81
2023/05/08 02:00:27;;;;;;;;;4.50;4.00;;;;;;;;4938436;28;46440;-80
2023/05/08 02:02:53;;;;;;;;;6.50;5.00;;;;;;;;4938072;28;45478;-79
2023/05/08 02:05:20;;;;;;;;;9.00;7.75;;;;;;;;4938591;28;45400;-80
2023/05/08 02:07:47;;;;;;;;;5.50;4.75;;;;;;;;4938803;28;45506;-81
2023/05/08 02:10:14;;;;;;;;;8.25;5.75;;;;;;;;4938341;28;45449;-81
2023/05/08 02:12:39;;;;;;;;;4.75;4.00;;;;;;;;4938173;28;45722;-80
2023/05/08 02:15:06;;;;;;;;;8.00;5.75;;;;;;;;4938153;28;45280;-80
2023/05/08 02:17:32;;;;;;;;;4.00;3.00;;;;;;;;4938148;28;45606;-80
2023/05/08 02:19:58;;;;;;;;;7.00;5.00;;;;;;;;4989782;28;45704;-80
2023/05/08 02:22:25;;;;;;;;;5.50;4.00;;;;;;;;5018606;28;45742;-80
2023/05/08 02:24:54;;;;;;;;;8.00;5.00;;;;;;;;5019184;28;45478;-80
2023/05/08 02:27:21;;;;;;;;;8.25;5.00;;;;;;;;5019004;28;45400;-81
2023/05/08 02:29:46;;;;;;;;;9.25;5.00;;;;;;;;5018401;28;45423;-80
2023/05/08 02:32:12;;;;;;;;;14.25;7.00;;;;;;;;5018336;28;45288;-80
2023/05/08 02:34:38;;;;;;;;;6.00;3.00;;;;;;;;5018676;28;45390;-80
2023/05/08 02:37:04;;;;;;;;;8.00;3.75;;;;;;;;5018518;28;45365;-80
2023/05/08 02:39:30;;;;;;;;;7.50;4.00;;;;;;;;5018153;28;46421;-80
2023/05/08 02:41:57;;;;;;;;;7.00;4.00;;;;;;;;5018171;28;45271;-80
2023/05/08 02:44:22;;;;;;;;;11.00;4.75;;;;;;;;5018472;28;45326;-80
2023/05/08 02:46:52;;;;;;;;;3.67;3.67;;;;;;;;5018080;28;45516;-80
2023/05/08 02:49:30;;;;;;;;;7.75;4.00;;;;;;;;5018292;28;46304;-80
2023/05/08 02:52:09;;;;;;;;;5.50;4.00;;;;;;;;5018430;28;45869;-80
2023/05/08 02:54:37;;;;;;;;;4.00;3.25;;;;;;;;5018306;28;45401;-81
2023/05/08 02:57:05;;;;;;;;;4.75;4.75;;;;;;;;5018167;28;45208;-80
2023/05/08 02:59:35;;;;;;;;;10.25;6.00;;;;;;;;5017521;28;46879;-81
2023/05/08 03:02:19;;;;;;;;;4.00;4.00;;;;;;;;5018355;28;45342;-82
2023/05/08 03:04:54;;;;;;;;;5.25;3.00;;;;;;;;5018166;28;45289;-80
2023/05/08 03:07:22;;;;;;;;;4.75;4.00;;;;;;;;5018073;28;45569;-81
2023/05/08 03:09:49;;;;;;;;;7.25;5.50;;;;;;;;5017881;28;46444;-80
2023/05/08 03:12:17;;;;;;;;;10.50;5.50;;;;;;;;5024536;28;45747;-81
2023/05/08 03:14:51;;;;;;;;;11.00;5.25;;;;;;;;5037588;28;45342;-81
2023/05/08 03:17:17;;;;;;;;;3.75;3.75;;;;;;;;5037744;28;45321;-81
2023/05/08 03:19:45;;;;;;;;;4.25;3.50;;;;;;;;5037560;28;46586;-80
2023/05/08 03:22:13;;;;;;;;;9.50;5.00;;;;;;;;5037542;28;45663;-81
2023/05/08 03:24:41;;;;;;;;;9.00;4.25;;;;;;;;5037605;28;45429;-80
2023/05/08 03:27:08;;;;;;;;;4.50;4.50;;;;;;;;5037708;28;45310;-80
2023/05/08 03:29:35;;;;;;;;;8.75;5.00;;;;;;;;5037049;28;45498;-80
2023/05/08 03:32:01;;;;;;;;;10.00;7.00;;;;;;;;5037489;28;45620;-81
2023/05/08 03:34:27;;;;;;;;;3.50;3.00;;;;;;;;5037675;28;45330;-80
2023/05/08 03:36:52;;;;;;;;;5.25;3.75;;;;;;;;5037431;28;45453;-80
2023/05/08 03:39:17;;;;;;;;;7.67;3.33;;;;;;;;5037087;28;46185;-81
2023/05/08 03:41:44;;;;;;;;;9.00;3.00;;;;;;;;5037130;28;45298;-80
2023/05/08 03:44:09;;;;;;;;;5.00;4.00;;;;;;;;5037015;28;45423;-79
2023/05/08 03:46:36;;;;;;;;;4.50;4.25;;;;;;;;5037204;28;45340;-80
2023/05/08 03:49:03;;;;;;;;;5.00;5.00;;;;;;;;5037208;28;45539;-80
2023/05/08 03:51:28;;;;;;;;;6.50;4.75;;;;;;;;5037305;28;45854;-81
2023/05/08 03:53:53;;;;;;;;;5.00;4.25;;;;;;;;5036895;28;45460;-80
2023/05/08 03:56:18;;;;;;;;;9.00;5.33;;;;;;;;5036862;28;45286;-81
2023/05/08 03:58:49;;;;;;;;;4.67;3.00;;;;;;;;5036588;28;45585;-81
2023/05/08 04:01:15;;;;;;;;;7.25;4.00;;;;;;;;5037036;28;45650;-80
2023/05/08 04:03:52;;;;;;;;;7.67;3.67;;;;;;;;5037175;28;45430;-81
2023/05/08 04:06:20;;;;;;;;;7.00;4.25;;;;;;;;5037040;28;45457;-81
2023/05/08 04:08:49;;;;;;;;;7.75;3.25;;;;;;;;5036963;28;45439;-80
2023/05/08 04:11:22;;;;;;;;;7.00;5.00;;;;;;;;5036741;28;45345;-81
2023/05/08 04:13:53;;;;;;;;;8.75;4.00;;;;;;;;5036598;28;45322;-81
2023/05/08 04:16:26;;;;;;;;;6.75;3.00;;;;;;;;5036739;28;45472;-81
2023/05/08 04:18:55;;;;;;;;;5.00;4.00;;;;;;;;5036870;28;46417;-81
2023/05/08 04:21:23;;;;;;;;;3.00;3.00;;;;;;;;5036561;28;45646;-81
2023/05/08 04:23:49;;;;;;;;;5.25;3.75;;;;;;;;5036736;28;45447;-80
2023/05/08 04:26:16;;;;;;;;;7.00;7.00;;;;;;;;5036815;28;45518;-81
2023/05/08 04:28:41;;;;;;;;;5.00;3.75;;;;;;;;5036057;28;46450;-80
2023/05/08 04:31:07;;;;;;;;;10.25;4.50;;;;;;;;5036332;28;45451;-80
2023/05/08 04:33:33;;;;;;;;;1.75;1.75;;;;;;;;5036723;28;45513;-80
2023/05/08 04:36:00;;;;;;;;;3.75;3.75;;;;;;;;5036644;28;45404;-79
2023/05/08 04:38:25;;;;;;;;;3.00;3.00;;;;;;;;5036117;28;47481;-80
2023/05/08 04:40:50;;;;;;;;;2.33;2.00;;;;;;;;5018610;28;45666;-80
2023/05/08 04:43:15;;;;;;;;;8.00;3.67;;;;;;;;5036478;28;45214;-80
2023/05/08 04:45:41;;;;;;;;;8.33;4.00;;;;;;;;5036788;28;45443;-81
2023/05/08 04:48:06;;;;;;;;;4.25;3.00;;;;;;;;5036213;28;46225;-80
2023/05/08 04:50:31;;;;;;;;;5.67;3.00;;;;;;;;5036524;28;45372;-80
2023/05/08 04:52:56;;;;;;;;;6.33;3.00;;;;;;;;5036114;28;45395;-80
2023/05/08 04:55:21;;;;;;;;;5.00;4.00;;;;;;;;5036564;28;45195;-80
2023/05/08 04:57:47;;;;;;;;;6.67;5.67;;;;;;;;5036438;28;45798;-80
2023/05/08 05:00:12;;;;;;;;;16.00;4.00;;;;;;;;5035981;28;45396;-79
2023/05/08 05:02:37;;;;;;;;;4.00;3.00;;;;;;;;5035996;28;45418;-81
2023/05/08 05:05:03;;;;;;;;;6.75;4.50;;;;;;;;5036453;28;45213;-81
2023/05/08 05:07:28;;;;;;;;;5.25;4.00;;;;;;;;5034845;28;46361;-81
2023/05/08 05:09:53;;;;;;;;;10.33;4.67;;;;;;;;5035735;28;45540;-80
2023/05/08 05:12:18;;;;;;;;;7.67;2.67;;;;;;;;5035863;28;45325;-79
2023/05/08 05:14:44;;;;;;;;;4.67;4.33;;;;;;;;5036072;28;45429;-80
2023/05/08 05:17:09;;;;;;;;;4.00;3.00;;;;;;;;5035702;28;45387;-81
2023/05/08 05:19:34;;;;;;;;;7.00;4.67;;;;;;;;5035862;28;45386;-80
2023/05/08 05:21:59;;;;;;;;;5.00;3.00;;;;;;;;5035790;28;45332;-80
2023/05/08 05:24:24;;;;;;;;;7.00;3.33;;;;;;;;5035394;28;45613;-79
2023/05/08 05:26:49;;;;;;;;;8.67;4.33;;;;;;;;5035634;28;46385;-80
2023/05/08 05:29:15;;;;;;;;;3.00;1.67;;;;;;;;5035651;28;45342;-78
2023/05/08 05:31:41;;;;;;;;;7.00;5.00;;;;;;;;5036046;28;45357;-78
2023/05/08 05:34:06;;;;;;;;;4.00;2.50;;;;;;;;5035969;28;45988;-78
2023/05/08 05:36:31;;;;;;;;;3.00;3.00;;;;;;;;5035739;28;46523;-78
2023/05/08 05:38:56;;;;;;;;;4.33;3.00;;;;;;;;5034941;28;45285;-77
2023/05/08 05:41:22;;;;;;;;;5.00;2.00;;;;;;;;5035542;28;45392;-77
2023/05/08 05:43:47;;;;;;;;;5.75;3.00;;;;;;;;5035582;28;45309;-78
2023/05/08 05:46:12;;;;;;;;;3.33;3.00;;;;;;;;5035442;28;46455;-78
2023/05/08 05:48:37;;;;;;;;;3.33;3.00;;;;;;;;5035501;28;45443;-78
2023/05/08 05:51:03;;;;;;;;;4.00;4.00;;;;;;;;5035567;28;45453;-78
2023/05/08 05:53:28;;;;;;;;;4.75;3.00;;;;;;;;5035021;28;45395;-78
2023/05/08 05:55:53;;;;;;;;;4.67;2.00;;;;;;;;5035348;28;47452;-78
2023/05/08 05:58:18;;;;;;;;;5.00;4.00;;;;;;;;5035418;28;45368;-79
2023/05/08 06:00:44;;;;;;;;;9.00;6.00;;;;;;;;5035628;28;45361;-78
2023/05/08 06:03:12;;;;;;;;;3.00;3.00;;;;;;;;5035386;28;45367;-78
2023/05/08 06:05:38;;;;;;;;;4.00;4.00;;;;;;;;5034895;28;46527;-78
2023/05/08 06:08:04;;;;;;;;;4.50;4.50;;;;;;;;5034883;28;45283;-78
2023/05/08 06:10:29;;;;;;;;;6.25;4.25;;;;;;;;5035204;28;45463;-78
2023/05/08 06:12:55;;;;;;;;;9.00;3.67;;;;;;;;5034910;28;45414;-78
2023/05/08 06:15:21;;;;;;;;;4.50;1.00;;;;;;;;5034847;28;46295;-78
2023/05/08 06:17:46;;;;;;;;;6.25;5.00;;;;;;;;5035583;28;45373;-78
2023/05/08 06:20:11;;;;;;;;;9.67;4.67;;;;;;;;5038834;28;45426;-78
2023/05/08 06:22:38;;;;;;;;;5.00;3.67;;;;;;;;5038243;28;45480;-78
2023/05/08 06:25:05;;;;;;;;;7.25;4.75;;;;;;;;5038139;28;46357;-78
2023/05/08 06:27:30;;;;;;;;;9.75;3.75;;;;;;;;5038366;28;45751;-78
2023/05/08 06:29:56;;;;;;;;;9.00;3.67;;;;;;;;5038419;28;45397;-78
2023/05/08 06:32:21;;;;;;;;;5.00;5.00;;;;;;;;5038437;28;45250;-78
2023/05/08 06:34:46;;;;;;;;;10.67;6.33;;;;;;;;5038140;28;45690;-77
2023/05/08 06:37:12;;;;;;;;;11.25;6.75;;;;;;;;5037677;28;45160;-77
2023/05/08 06:39:37;;;;;;;;;5.00;3.33;;;;;;;;5038121;28;45394;-78
2023/05/08 06:42:05;;;;;;;;;5.00;4.00;;;;;;;;5038282;28;45370;-78
2023/05/08 06:44:30;;;;;;;;;9.25;4.00;;;;;;;;5038032;28;46731;-78
2023/05/08 06:46:55;;;;;;;;;6.00;6.00;;;;;;;;5037912;28;45452;-77
2023/05/08 06:49:21;;;;;;;;;8.00;5.00;;;;;;;;5038128;28;45357;-78
2023/05/08 06:51:46;;;;;;;;;8.00;5.00;;;;;;;;5037748;28;45293;-78
2023/05/08 06:54:12;;;;;;;;;7.00;4.00;;;;;;;;5037942;28;46260;-78
2023/05/08 06:56:37;;;;;;;;;13.00;5.67;;;;;;;;5037909;28;45310;-78
2023/05/08 06:59:02;;;;;;;;;9.25;4.25;;;;;;;;5037956;28;45341;-79
2023/05/08 07:01:27;;;;;;;;;9.25;6.50;;;;;;;;5037825;28;45501;-78
2023/05/08 07:03:53;;;;;;;;;8.00;5.67;;;;;;;;5037683;28;45373;-78
2023/05/08 07:06:18;;;;;;;;;11.67;4.67;;;;;;;;5019487;28;45626;-78
2023/05/08 07:08:43;;;;;;;;;11.00;5.00;;;;;;;;5038113;28;45312;-78
2023/05/08 07:11:11;;;;;;;;;8.00;3.67;;;;;;;;5037676;28;45632;-78
2023/05/08 07:13:36;;;;;;;;;3.75;3.75;;;;;;;;5037527;28;46520;-78
2023/05/08 07:16:02;;;;;;;;;7.33;4.00;;;;;;;;5037736;28;45424;-77
2023/05/08 07:18:27;;;;;;;;;5.00;4.00;;;;;;;;5033192;28;45315;-78
2023/05/08 07:20:52;;;;;;;;;5.50;3.25;;;;;;;;5025670;28;45377;-78
2023/05/08 07:23:18;;;;;;;;;8.00;2.67;;;;;;;;5037434;28;46476;-77
2023/05/08 07:25:43;;;;;;;;;5.50;4.00;;;;;;;;5037478;28;45449;-80
2023/05/08 07:28:08;;;;;;;;;4.67;4.00;;;;;;;;5037327;28;45635;-78
2023/05/08 07:30:34;;;;;;;;;5.00;3.33;;;;;;;;5036221;28;45452;-78
2023/05/08 07:32:59;;;;;;;;;3.75;2.75;;;;;;;;5019177;28;46042;-78
2023/05/08 07:35:25;;;;;;;;;2.67;1.67;;;;;;;;5036930;28;45329;-78
2023/05/08 07:37:50;;;;;;;;;4.25;3.50;;;;;;;;5037229;28;45501;-78
2023/05/08 07:40:15;;;;;;;;;4.67;4.00;;;;;;;;5037186;28;45507;-78
2023/05/08 07:42:41;;;;;;;;;3.00;2.67;;;;;;;;5037027;28;45724;-78
2023/05/08 07:45:10;;;;;;;;;3.25;3.25;;;;;;;;5037002;28;45523;-78
2023/05/08 07:47:35;;;;;;;;;8.25;2.75;;;;;;;;5034452;28;45349;-77
2023/05/08 07:50:01;;;;;;;;;2.00;2.00;;;;;;;;5036411;28;45556;-77
2023/05/08 07:52:26;;;;;;;;;5.00;3.00;;;;;;;;5036762;28;45455;-77
2023/05/08 07:54:51;;;;;;;;;3.33;3.00;;;;;;;;5036995;28;45724;-79
2023/05/08 07:57:16;;;;;;;;;7.67;3.00;;;;;;;;5036961;28;45392;-76
2023/05/08 07:59:42;;;;;;;;;4.00;3.00;;;;;;;;5036767;28;45360;-77
2023/05/08 08:02:07;;;;;;;;;5.33;3.33;;;;;;;;5036171;28;45475;-77
2023/05/08 08:04:32;;;;;;;;;4.33;3.33;;;;;;;;5036407;28;45313;-76
2023/05/08 08:06:57;;;;;;;;;5.67;4.67;;;;;;;;5036691;28;45358;-77
2023/05/08 08:09:22;;;;;;;;;8.67;4.33;;;;;;;;5036759;28;45380;-76
2023/05/08 08:11:48;;;;;;;;;4.67;3.33;;;;;;;;5035661;28;46755;-78
2023/05/08 08:14:13;;;;;;;;;9.33;3.00;;;;;;;;5035681;28;45433;-76
2023/05/08 08:16:38;;;;;;;;;4.67;4.00;;;;;;;;5035859;28;45314;-77
2023/05/08 08:19:03;;;;;;;;;5.33;5.00;;;;;;;;5035724;28;45594;-76
2023/05/08 08:21:29;;;;;;;;;5.00;3.00;;;;;;;;5036341;28;46980;-76
2023/05/08 08:23:55;;;;;;;;;9.75;4.00;;;;;;;;5036321;28;45354;-77
2023/05/08 08:26:20;;;;;;;;;7.75;5.00;;;;;;;;5036648;28;45379;-79
2023/05/08 08:28:45;;;;;;;;;5.00;2.00;;;;;;;;5036642;28;45341;-76
2023/05/08 08:31:11;;;;;;;;;6.00;4.00;;;;;;;;5036511;28;46052;-77
2023/05/08 08:33:36;;;;;;;;;7.00;4.00;;;;;;;;5036105;28;45407;-77
2023/05/08 08:36:02;;;;;;;;;4.67;3.00;;;;;;;;5025847;28;45496;-76
2023/05/08 08:38:27;;;;;;;;;5.75;5.00;;;;;;;;5022417;28;45564;-76
2023/05/08 08:40:53;;;;;;;;;5.33;3.00;;;;;;;;5024413;28;46334;-77
2023/05/08 08:43:18;;;;;;;;;3.75;3.50;;;;;;;;5035884;28;45413;-78
2023/05/08 08:45:44;;;;;;;;;6.50;4.25;;;;;;;;5033430;28;45702;-76
2023/05/08 08:48:11;;;;;;;;;4.00;3.00;;;;;;;;5018281;28;45552;-77
2023/05/08 08:50:40;;;;;;;;;5.00;4.00;;;;;;;;5033988;28;46296;-76
2023/05/08 08:53:20;;;;;;;;;6.25;4.25;;;;;;;;5036155;28;45296;-78
2023/05/08 08:55:48;;;;;;;;;3.25;3.00;;;;;;;;5023400;28;45347;-78
2023/05/08 08:58:16;;;;;;;;;3.50;3.00;;;;;;;;5016859;28;45501;-75
2023/05/08 09:00:42;;;;;;;;;7.75;3.75;;;;;;;;5029382;28;46432;-77
2023/05/08 09:03:07;;;;;;;;;5.00;2.25;;;;;;;;5035373;28;45476;-77
2023/05/08 09:05:32;;;;;;;;;6.75;3.00;;;;;;;;5027426;28;45486;-75
2023/05/08 09:07:58;;;;;;;;;2.25;2.25;;;;;;;;5026250;28;45570;-76
2023/05/08 09:10:23;;;;;;;;;3.00;2.25;;;;;;;;5022291;28;45290;-75
2023/05/08 09:12:49;;;;;;;;;3.75;2.50;;;;;;;;5027152;28;45378;-76
2023/05/08 09:15:14;;;;;;;;;5.50;4.00;;;;;;;;5035902;28;45457;-76
2023/05/08 09:17:39;;;;;;;;;6.00;3.00;;;;;;;;5019913;28;45301;-78
2023/05/08 09:20:05;;;;;;;;;14.00;3.00;;;;;;;;5033251;28;46480;-78
2023/05/08 09:22:30;;;;;;;;;3.50;3.50;;;;;;;;5034213;28;45487;-78
2023/05/08 09:24:57;;;;;;;;;3.50;2.50;;;;;;;;5023161;28;45302;-78
2023/05/08 09:27:23;;;;;;;;;3.00;2.00;;;;;;;;5035621;28;45398;-76
2023/05/08 09:30:05;;;;;;;;;7.25;3.00;;;;;;;;5024562;28;46459;-76
2023/05/08 09:32:30;;;;;;;;;3.25;3.00;;;;;;;;5015394;28;45717;-76
2023/05/08 09:34:56;;;;;;;;;2.00;2.00;;;;;;;;5015650;28;45400;-80
2023/05/08 09:37:21;;;;;;;;;3.00;2.50;;;;;;;;5015666;28;45433;-77
2023/05/08 09:39:47;;;;;;;;;2.33;2.33;;;;;;;;5015035;28;46454;-75
2023/05/08 09:42:13;;;;;;;;;3.00;3.00;;;;;;;;5019402;28;45422;-76
2023/05/08 09:44:51;;;;;;;;;6.00;3.00;;;;;;;;5027069;28;46711;-75
2023/05/08 09:47:21;;;;;;;;;6.50;2.50;;;;;;;;5031784;28;45476;-76
2023/05/08 09:49:56;;;;;;;;;3.00;1.00;;;;;;;;5034732;28;46174;-75
2023/05/08 09:52:22;;;;;;;;;7.00;3.00;;;;;;;;5035006;28;45753;-76
2023/05/08 09:54:47;;;;;;;;;5.75;3.75;;;;;;;;5039134;28;45389;-75
2023/05/08 09:57:13;;;;;;;;;4.00;3.00;;;;;;;;5038084;28;45366;-76
2023/05/08 09:59:38;;;;;;;;;5.50;2.00;;;;;;;;5037563;28;46361;-76
2023/05/08 10:02:09;;;;;;;;;6.33;3.00;;;;;;;;5037671;28;45347;-76
2023/05/08 10:04:35;;;;;;;;;4.50;2.00;;;;;;;;5038237;28;45894;-76
2023/05/08 10:07:01;;;;;;;;;2.00;2.00;;;;;;;;5038073;28;45353;-76
2023/05/08 10:09:26;;;;;;;;;3.00;3.00;;;;;;;;5037519;28;46494;-77
2023/05/08 10:11:53;;;;;;;;;3.67;2.33;;;;;;;;5037722;28;45767;-77
2023/05/08 10:14:19;;;;;;;;;3.75;2.00;;;;;;;;5038037;28;45302;-76
2023/05/08 10:16:45;;;;;;;;;4.75;2.75;;;;;;;;5036881;28;45504;-76
2023/05/08 10:19:12;;;;;;;;;3.50;3.00;;;;;;;;5037715;28;45433;-76
2023/05/08 10:21:39;;;;;;;;;3.75;2.50;;;;;;;;5037811;28;45310;-75
2023/05/08 10:24:08;;;;;;;;;4.25;2.75;;;;;;;;5036518;28;45579;-76
2023/05/08 10:26:37;;;;;;;;;3.25;3.25;;;;;;;;5036128;28;45471;-76
2023/05/08 10:29:05;;;;;;;;;4.00;3.00;;;;;;;;5017345;28;46428;-75
2023/05/08 10:31:33;;;;;;;;;3.25;2.50;;;;;;;;5022495;28;45420;-77
2023/05/08 10:34:00;;;;;;;;;7.25;3.00;;;;;;;;5024576;28;45441;-76
2023/05/08 10:36:27;;;;;;;;;4.00;2.25;;;;;;;;5024582;28;45489;-76
2023/05/08 10:38:52;;;;;;;;;4.75;2.00;;;;;;;;5036752;28;45416;-76
2023/05/08 10:41:18;;;;;;;;;3.25;3.00;;;;;;;;5037228;28;45352;-75
2023/05/08 10:43:43;;;;;;;;;3.00;3.00;;;;;;;;5031294;28;45524;-77
2023/05/08 10:46:21;;;;;;;;;7.33;3.67;;;;;;;;5031797;28;45475;-77
2023/05/08 10:48:59;;;;;;;;;3.25;2.25;;;;;;;;5035539;28;45419;-76
2023/05/08 10:51:51;;;;;;;;;3.00;2.25;;;;;;;;5030267;28;45875;-76
2023/05/08 10:54:16;;;;;;;;;6.00;2.00;;;;;;;;5018644;28;45485;-77
2023/05/08 10:56:42;;;;;;;;;4.67;2.00;;;;;;;;5029313;28;45279;-76
2023/05/08 10:59:16;;;;;;;;;6.00;3.00;;;;;;;;5016815;28;46036;-76
2023/05/08 11:01:42;;;;;;;;;4.25;2.00;;;;;;;;5028039;28;45235;-76
2023/05/08 11:04:18;;;;;;;;;5.75;3.25;;;;;;;;5037264;28;45357;-76
2023/05/08 11:06:47;;;;;;;;;4.75;3.00;;;;;;;;5037793;28;45549;-76
2023/05/08 11:09:13;;;;;;;;;4.00;3.25;;;;;;;;5037385;28;45580;-76
2023/05/08 11:11:39;;;;;;;;;3.25;1.75;;;;;;;;5037415;28;45788;-75
2023/05/08 11:14:07;;;;;;;;;1.50;0.50;;;;;;;;5031862;28;45369;-76
2023/05/08 11:17:01;;;;;;;;;2.00;1.50;;;;;;;;5037380;28;45524;-75
2023/05/08 11:19:27;;;;;;;;;3.75;2.00;;;;;;;;5037415;28;46419;-78
2023/05/08 11:22:11;;;;;;;;;5.00;3.00;;;;;;;;5018816;28;45357;-77
2023/05/08 11:24:38;;;;;;;;;4.25;3.00;;;;;;;;5037423;28;45405;-76
2023/05/08 11:27:03;;;;;;;;;6.50;2.25;;;;;;;;5036735;28;45356;-75
2023/05/08 11:29:29;;;;;;;;;4.25;3.50;;;;;;;;5037141;28;46534;-75
2023/05/08 11:31:54;;;;;;;;;2.25;2.25;;;;;;;;5037206;28;45302;-75
2023/05/08 11:34:54;;;;;;;;;6.00;3.00;;;;;;;;5037117;28;45334;-74
2023/05/08 11:37:20;;;;;;;;;3.00;3.00;;;;;;;;4936796;28;45487;-75
2023/05/08 11:39:46;;;;;;;;;3.75;3.75;;;;;;;;4936591;28;46220;-75
2023/05/08 11:42:23;;;;;;;;;5.50;3.00;;;;;;;;4936260;28;45392;-74
2023/05/08 11:44:49;;;;;;;;;4.00;2.00;;;;;;;;4936557;28;45491;-75
2023/05/08 11:47:17;;;;;;;;;4.00;3.00;;;;;;;;4936751;28;45359;-75
2023/05/08 11:49:42;;;;;;;;;5.50;4.00;;;;;;;;4936291;28;46913;-73
2023/05/08 11:52:07;;;;;;;;;3.67;2.00;;;;;;;;4936501;28;45566;-75
2023/05/08 11:54:32;;;;;;;;;4.00;2.00;;;;;;;;4936771;28;45795;-74
2023/05/08 11:56:58;;;;;;;;;5.33;3.00;;;;;;;;4936112;28;45407;-74
2023/05/08 11:59:23;;;;;;;;;2.75;2.50;;;;;;;;4920194;28;46505;-74
2023/05/08 12:01:49;;;;;;;;;2.33;2.00;;;;;;;;4936410;28;45365;-74
2023/05/08 12:04:14;;;;;;;;;1.75;1.00;;;;;;;;4936434;28;45583;-74
2023/05/08 12:06:40;;;;;;;;;2.00;2.00;;;;;;;;4936537;28;45615;-74
2023/05/08 12:09:09;;;;;;;;;3.50;2.00;;;;;;;;4935201;28;46811;-74
2023/05/08 12:11:35;;;;;;;;;5.00;2.00;;;;;;;;4983564;28;45517;-75
2023/05/08 12:14:00;;;;;;;;;2.00;2.00;;;;;;;;5029144;28;45590;-75
2023/05/08 12:16:25;;;;;;;;;3.00;2.75;;;;;;;;5026045;28;45471;-74
2023/05/08 12:18:51;;;;;;;;;4.00;1.00;;;;;;;;5035895;28;46133;-74
2023/05/08 12:21:16;;;;;;;;;5.25;2.75;;;;;;;;5018345;28;45434;-75
2023/05/08 12:23:41;;;;;;;;;1.00;1.00;;;;;;;;5016278;28;45372;-78
2023/05/08 12:26:07;;;;;;;;;3.00;3.00;;;;;;;;5016337;28;45397;-77
2023/05/08 12:28:33;;;;;;;;;3.50;1.25;;;;;;;;5024935;28;46107;-77
2023/05/08 12:30:58;;;;;;;;;3.50;1.25;;;;;;;;5036287;28;45376;-77
2023/05/08 12:33:23;;;;;;;;;2.00;1.00;;;;;;;;5028284;28;45499;-77
2023/05/08 12:35:49;;;;;;;;;2.25;1.75;;;;;;;;5028449;28;47022;-77
2023/05/08 12:38:14;;;;;;;;;2.50;2.00;;;;;;;;5033347;28;45643;-78
2023/05/08 12:40:41;;;;;;;;;4.00;1.25;;;;;;;;5031712;28;45326;-77
2023/05/08 12:43:07;;;;;;;;;3.50;1.25;;;;;;;;5034872;28;45443;-77
2023/05/08 12:45:33;;;;;;;;;2.25;1.50;;;;;;;;5015381;28;45378;-76
2023/05/08 12:47:59;;;;;;;;;2.25;1.25;;;;;;;;5022882;28;45422;-77
2023/05/08 12:50:24;;;;;;;;;1.25;1.25;;;;;;;;5032597;28;45772;-77
2023/05/08 12:52:50;;;;;;;;;1.00;1.00;;;;;;;;5032661;28;45427;-77
2023/05/08 12:55:19;;;;;;;;;3.00;2.00;;;;;;;;5031030;28;45452;-78
2023/05/08 12:57:44;;;;;;;;;2.75;0.00;;;;;;;;5015534;28;46098;-78
2023/05/08 13:00:10;;;;;;;;;3.67;1.00;;;;;;;;5028002;28;45670;-77
2023/05/08 13:02:35;;;;;;;;;3.00;0.75;;;;;;;;5035045;28;45399;-76
2023/05/08 13:05:02;;;;;;;;;4.00;1.67;;;;;;;;5020600;28;45459;-77
2023/05/08 13:07:31;;;;;;;;;0.25;0.25;;;;;;;;5014821;28;46687;-79
2023/05/08 13:10:02;;;;;;;;;1.00;1.00;;;;;;;;5022219;28;45432;-77
2023/05/08 13:12:27;;;;;;;;;1.75;1.00;;;;;;;;5034657;28;45477;-77
2023/05/08 13:14:52;;;;;;;;;1.00;1.00;;;;;;;;5028511;28;45341;-76
2023/05/08 13:17:18;;;;;;;;;2.00;0.00;;;;;;;;5015699;28;46327;-77
2023/05/08 13:19:43;;;;;;;;;3.25;0.50;;;;;;;;5014701;28;45435;-77
2023/05/08 13:22:08;;;;;;;;;3.00;1.67;;;;;;;;5025857;28;45945;-77
2023/05/08 13:24:33;;;;;;;;;2.33;1.00;;;;;;;;5028219;28;45564;-78
2023/05/08 13:26:58;;;;;;;;;3.00;1.00;;;;;;;;5026465;28;45582;-79
2023/05/08 13:29:24;;;;;;;;;1.67;1.67;;;;;;;;5034903;28;45329;-79
2023/05/08 13:31:49;;;;;;;;;2.67;1.33;;;;;;;;5035172;28;45273;-80
2023/05/08 13:34:14;;;;;;;;;1.67;1.00;;;;;;;;5035406;28;45270;-79
2023/05/08 13:36:39;;;;;;;;;0.33;0.33;;;;;;;;5034664;28;45607;-79
2023/05/08 13:39:05;;;;;;;;;1.00;0.00;;;;;;;;5032951;28;45479;-78
2023/05/08 13:41:30;;;;;;;;;1.25;1.25;;;;;;;;5006801;28;45277;-78
2023/05/08 13:43:55;;;;;;;;;0.67;0.67;;;;;;;;5029587;28;45318;-79
2023/05/08 13:46:20;;;;;;;;;0.67;0.67;;;;;;;;5034299;28;46243;-78
2023/05/08 13:48:45;;;;;;;;;3.00;0.33;;;;;;;;5033619;28;45606;-79
2023/05/08 13:51:10;;;;;;;;;0.33;0.33;;;;;;;;5034598;28;45387;-77
2023/05/08 13:53:36;;;;;;;;;0.00;0.00;;;;;;;;5015451;28;45307;-78
2023/05/08 13:56:01;;;;;;;;;0.33;0.33;;;;;;;;5017660;28;46620;-78
2023/05/08 13:58:26;;;;;;;;;0.33;0.33;;;;;;;;5016162;28;45812;-78
2023/05/08 14:00:51;;;;;;;;;3.67;0.33;;;;;;;;5015164;28;45473;-78
2023/05/08 14:03:17;;;;;;;;;0.00;0.00;;;;;;;;5015837;28;45535;-80
2023/05/08 14:05:42;;;;;;;;;0.00;0.00;;;;;;;;5021823;28;46527;-78
2023/05/08 14:08:07;;;;;;;;;0.67;0.67;;;;;;;;5034866;28;45364;-80
2023/05/08 14:10:32;;;;;;;;;1.67;0.67;;;;;;;;5033314;28;45425;-80
2023/05/08 14:12:57;;;;;;;;;3.00;1.00;;;;;;;;5034891;28;45739;-82
2023/05/08 14:15:23;;;;;;;;;1.67;1.67;;;;;;;;5033220;28;46598;-85
2023/05/08 14:17:48;;;;;;;;;3.00;2.00;;;;;;;;5034860;28;45389;-80
2023/05/08 14:20:13;;;;;;;;;5.00;4.00;;;;;;;;5031615;28;45488;-83
2023/05/08 14:22:38;;;;;;;;;1.00;0.00;;;;;;;;5034539;28;45654;-82
2023/05/08 14:25:04;;;;;;;;;1.00;1.00;;;;;;;;5032597;28;45433;-84
2023/05/08 14:27:29;;;;;;;;;1.50;1.00;;;;;;;;5016954;28;45471;-81
2023/05/08 14:29:54;;;;;;;;;1.67;0.00;;;;;;;;5034580;28;45525;-84
2023/05/08 14:32:19;;;;;;;;;1.00;1.00;;;;;;;;5014882;28;45553;-84
2023/05/08 14:34:44;;;;;;;;;1.00;1.00;;;;;;;;5015938;28;45560;-83
2023/05/08 14:37:11;;;;;;;;;1.67;0.00;;;;;;;;5013036;28;45386;-84
2023/05/08 14:39:36;;;;;;;;;2.50;1.50;;;;;;;;5032915;28;45483;-83
2023/05/08 14:42:02;;;;;;;;;1.33;0.33;;;;;;;;5038060;28;45500;-80